sensor_id;sensor_type;location;lat;lon;timestamp;temperature;humidity
4635;DHT22;2330;48.158;11.816;2023-04-03T00:01:50;2.30;98.50
4635;DHT22;2330;48.158;11.816;2023-04-03T00:04:17;2.30;98.50
4635;DHT22;2330;48.158;11.816;2023-04-03T00:06:44;2.30;98.50
4635;DHT22;2330;48.158;11.816;2023-04-03T00:09:10;2.30;98.50
4635;DHT22;2330;48.158;11.816;2023-04-03T00:11:37;2.30;98.50
4635;DHT22;2330;48.158;11.816;2023-04-03T00:14:04;2.40;98.50
4635;DHT22;2330;48.158;11.816;2023-04-03T00:16:30;2.40;98.50
4635;DHT22;2330;48.158;11.816;2023-04-03T00:18:57;2.40;98.50
4635;DHT22;2330;48.158;11.816;2023-04-03T00:21:24;2.40;98.50
4635;DHT22;2330;48.158;11.816;2023-04-03T00:23:51;2.40;98.50
4635;DHT22;2330;48.158;11.816;2023-04-03T00:26:17;2.50;98.50
4635;DHT22;2330;48.158;11.816;2023-04-03T00:28:44;2.40;98.50
4635;DHT22;2330;48.158;11.816;2023-04-03T00:31:14;2.40;98.50
4635;DHT22;2330;48.158;11.816;2023-04-03T00:33:41;2.40;98.50
4635;DHT22;2330;48.158;11.816;2023-04-03T00:36:09;2.40;98.50
4635;DHT22;2330;48.158;11.816;2023-04-03T00:38:37;2.30;98.50
4635;DHT22;2330;48.158;11.816;2023-04-03T00:41:04;2.40;98.50
4635;DHT22;2330;48.158;11.816;2023-04-03T00:43:31;2.40;98.50
4635;DHT22;2330;48.158;11.816;2023-04-03T00:45:58;2.40;98.50
4635;DHT22;2330;48.158;11.816;2023-04-03T00:48:39;2.40;98.50
4635;DHT22;2330;48.158;11.816;2023-04-03T00:51:11;2.40;98.50
4635;DHT22;2330;48.158;11.816;2023-04-03T00:53:46;2.40;98.50
4635;DHT22;2330;48.158;11.816;2023-04-03T00:56:16;2.40;98.50
4635;DHT22;2330;48.158;11.816;2023-04-03T00:58:48;2.40;98.50
4635;DHT22;2330;48.158;11.816;2023-04-03T01:01:20;2.40;98.50
4635;DHT22;2330;48.158;11.816;2023-04-03T01:03:48;2.50;98.50
4635;DHT22;2330;48.158;11.816;2023-04-03T01:06:17;2.50;98.50
4635;DHT22;2330;48.158;11.816;2023-04-03T01:08:45;2.40;98.50
4635;DHT22;2330;48.158;11.816;2023-04-03T01:11:14;2.50;98.50
4635;DHT22;2330;48.158;11.816;2023-04-03T01:13:41;2.50;98.50
4635;DHT22;2330;48.158;11.816;2023-04-03T01:16:08;2.50;98.50
4635;DHT22;2330;48.158;11.816;2023-04-03T01:18:38;2.50;98.50
4635;DHT22;2330;48.158;11.816;2023-04-03T01:24:04;2.50;98.50
4635;DHT22;2330;48.158;11.816;2023-04-03T01:26:34;2.50;98.50
4635;DHT22;2330;48.158;11.816;2023-04-03T01:29:02;2.50;98.50
4635;DHT22;2330;48.158;11.816;2023-04-03T01:34:01;2.50;98.50
4635;DHT22;2330;48.158;11.816;2023-04-03T01:36:30;2.50;98.50
4635;DHT22;2330;48.158;11.816;2023-04-03T01:38:59;2.60;98.50
4635;DHT22;2330;48.158;11.816;2023-04-03T01:41:27;2.60;98.50
4635;DHT22;2330;48.158;11.816;2023-04-03T01:43:54;2.60;98.50
4635;DHT22;2330;48.158;11.816;2023-04-03T01:46:22;2.60;98.50
4635;DHT22;2330;48.158;11.816;2023-04-03T01:48:49;2.60;98.50
4635;DHT22;2330;48.158;11.816;2023-04-03T01:51:16;2.60;98.50
4635;DHT22;2330;48.158;11.816;2023-04-03T01:53:43;2.60;98.50
4635;DHT22;2330;48.158;11.816;2023-04-03T01:56:10;2.60;98.50
4635;DHT22;2330;48.158;11.816;2023-04-03T01:58:36;2.60;98.50
4635;DHT22;2330;48.158;11.816;2023-04-03T02:01:04;2.60;98.50
4635;DHT22;2330;48.158;11.816;2023-04-03T02:03:31;2.60;98.50
4635;DHT22;2330;48.158;11.816;2023-04-03T02:05:58;2.60;98.50
4635;DHT22;2330;48.158;11.816;2023-04-03T02:08:25;2.60;98.50
4635;DHT22;2330;48.158;11.816;2023-04-03T02:10:52;2.60;98.50
4635;DHT22;2330;48.158;11.816;2023-04-03T02:13:19;2.50;98.50
4635;DHT22;2330;48.158;11.816;2023-04-03T02:15:46;2.50;98.50
4635;DHT22;2330;48.158;11.816;2023-04-03T02:18:15;2.50;98.50
4635;DHT22;2330;48.158;11.816;2023-04-03T02:20:42;2.50;98.50
4635;DHT22;2330;48.158;11.816;2023-04-03T02:23:09;2.60;98.50
4635;DHT22;2330;48.158;11.816;2023-04-03T02:25:36;2.60;98.50
4635;DHT22;2330;48.158;11.816;2023-04-03T02:28:05;2.60;98.50
4635;DHT22;2330;48.158;11.816;2023-04-03T02:30:31;2.60;98.50
4635;DHT22;2330;48.158;11.816;2023-04-03T02:32:58;2.60;98.50
4635;DHT22;2330;48.158;11.816;2023-04-03T02:35:25;2.60;98.50
4635;DHT22;2330;48.158;11.816;2023-04-03T02:37:52;2.60;98.50
4635;DHT22;2330;48.158;11.816;2023-04-03T02:40:19;2.60;98.50
4635;DHT22;2330;48.158;11.816;2023-04-03T02:42:46;2.60;98.50
4635;DHT22;2330;48.158;11.816;2023-04-03T02:45:13;2.60;98.50
4635;DHT22;2330;48.158;11.816;2023-04-03T02:47:40;2.60;98.50
4635;DHT22;2330;48.158;11.816;2023-04-03T02:50:07;2.60;98.50
4635;DHT22;2330;48.158;11.816;2023-04-03T02:52:34;2.60;98.50
4635;DHT22;2330;48.158;11.816;2023-04-03T02:55:00;2.60;98.50
4635;DHT22;2330;48.158;11.816;2023-04-03T02:57:27;2.60;98.50
4635;DHT22;2330;48.158;11.816;2023-04-03T02:59:54;2.50;98.50
4635;DHT22;2330;48.158;11.816;2023-04-03T03:02:20;2.50;98.50
4635;DHT22;2330;48.158;11.816;2023-04-03T03:04:47;2.50;98.50
4635;DHT22;2330;48.158;11.816;2023-04-03T03:07:14;2.60;98.50
4635;DHT22;2330;48.158;11.816;2023-04-03T03:09:41;2.60;98.50
4635;DHT22;2330;48.158;11.816;2023-04-03T03:12:07;2.60;98.50
4635;DHT22;2330;48.158;11.816;2023-04-03T03:14:34;2.60;98.50
4635;DHT22;2330;48.158;11.816;2023-04-03T03:17:01;2.50;98.50
4635;DHT22;2330;48.158;11.816;2023-04-03T03:19:28;2.50;98.50
4635;DHT22;2330;48.158;11.816;2023-04-03T03:21:54;2.50;98.50
4635;DHT22;2330;48.158;11.816;2023-04-03T03:24:21;2.50;98.50
4635;DHT22;2330;48.158;11.816;2023-04-03T03:26:48;2.60;98.50
4635;DHT22;2330;48.158;11.816;2023-04-03T03:29:14;2.60;98.50
4635;DHT22;2330;48.158;11.816;2023-04-03T03:31:41;2.60;98.50
4635;DHT22;2330;48.158;11.816;2023-04-03T03:34:08;2.50;98.50
4635;DHT22;2330;48.158;11.816;2023-04-03T03:36:35;2.50;98.50
4635;DHT22;2330;48.158;11.816;2023-04-03T03:39:02;2.50;98.50
4635;DHT22;2330;48.158;11.816;2023-04-03T03:41:29;2.50;98.50
4635;DHT22;2330;48.158;11.816;2023-04-03T03:43:56;2.50;98.50
4635;DHT22;2330;48.158;11.816;2023-04-03T03:46:23;2.50;98.50
4635;DHT22;2330;48.158;11.816;2023-04-03T03:48:49;2.50;98.50
4635;DHT22;2330;48.158;11.816;2023-04-03T03:51:16;2.50;98.50
4635;DHT22;2330;48.158;11.816;2023-04-03T03:53:43;2.50;98.50
4635;DHT22;2330;48.158;11.816;2023-04-03T03:56:10;2.50;98.50
4635;DHT22;2330;48.158;11.816;2023-04-03T03:58:36;2.40;98.50
4635;DHT22;2330;48.158;11.816;2023-04-03T04:01:04;2.40;98.50
4635;DHT22;2330;48.158;11.816;2023-04-03T04:03:32;2.50;98.50
4635;DHT22;2330;48.158;11.816;2023-04-03T04:06:00;2.50;98.50
4635;DHT22;2330;48.158;11.816;2023-04-03T04:08:27;2.50;98.50
4635;DHT22;2330;48.158;11.816;2023-04-03T04:10:53;2.50;98.50
4635;DHT22;2330;48.158;11.816;2023-04-03T04:13:21;2.50;98.50
4635;DHT22;2330;48.158;11.816;2023-04-03T04:15:47;2.50;98.50
4635;DHT22;2330;48.158;11.816;2023-04-03T04:18:14;2.50;98.50
4635;DHT22;2330;48.158;11.816;2023-04-03T04:20:41;2.50;98.50
4635;DHT22;2330;48.158;11.816;2023-04-03T04:23:08;2.50;98.50
4635;DHT22;2330;48.158;11.816;2023-04-03T04:25:34;2.50;98.50
4635;DHT22;2330;48.158;11.816;2023-04-03T04:28:02;2.40;98.50
4635;DHT22;2330;48.158;11.816;2023-04-03T04:30:28;2.40;98.50
4635;DHT22;2330;48.158;11.816;2023-04-03T04:32:55;2.40;98.50
4635;DHT22;2330;48.158;11.816;2023-04-03T04:35:22;2.40;98.50
4635;DHT22;2330;48.158;11.816;2023-04-03T04:37:49;2.40;98.50
4635;DHT22;2330;48.158;11.816;2023-04-03T04:40:16;2.40;98.50
4635;DHT22;2330;48.158;11.816;2023-04-03T04:42:43;2.50;98.50
4635;DHT22;2330;48.158;11.816;2023-04-03T04:45:10;2.40;98.50
4635;DHT22;2330;48.158;11.816;2023-04-03T04:47:37;2.40;98.50
4635;DHT22;2330;48.158;11.816;2023-04-03T04:50:04;2.40;98.50
4635;DHT22;2330;48.158;11.816;2023-04-03T04:52:32;2.40;98.50
4635;DHT22;2330;48.158;11.816;2023-04-03T04:54:58;2.40;98.50
4635;DHT22;2330;48.158;11.816;2023-04-03T04:57:26;2.40;98.50
4635;DHT22;2330;48.158;11.816;2023-04-03T04:59:53;2.40;98.50
4635;DHT22;2330;48.158;11.816;2023-04-03T05:02:19;2.40;98.50
4635;DHT22;2330;48.158;11.816;2023-04-03T05:04:46;2.40;98.50
4635;DHT22;2330;48.158;11.816;2023-04-03T05:07:13;2.40;98.50
4635;DHT22;2330;48.158;11.816;2023-04-03T05:09:42;2.40;98.50
4635;DHT22;2330;48.158;11.816;2023-04-03T05:12:08;2.40;98.50
4635;DHT22;2330;48.158;11.816;2023-04-03T05:14:35;2.40;98.50
4635;DHT22;2330;48.158;11.816;2023-04-03T05:17:02;2.40;98.50
4635;DHT22;2330;48.158;11.816;2023-04-03T05:19:29;2.40;98.50
4635;DHT22;2330;48.158;11.816;2023-04-03T05:21:59;2.30;98.50
4635;DHT22;2330;48.158;11.816;2023-04-03T05:24:25;2.30;98.50
4635;DHT22;2330;48.158;11.816;2023-04-03T05:26:52;2.40;98.50
4635;DHT22;2330;48.158;11.816;2023-04-03T05:29:20;2.40;98.50
4635;DHT22;2330;48.158;11.816;2023-04-03T05:31:49;2.40;98.50
4635;DHT22;2330;48.158;11.816;2023-04-03T05:34:17;2.40;98.50
4635;DHT22;2330;48.158;11.816;2023-04-03T05:36:44;2.30;98.50
4635;DHT22;2330;48.158;11.816;2023-04-03T05:39:11;2.40;98.50
4635;DHT22;2330;48.158;11.816;2023-04-03T05:41:37;2.40;98.50
4635;DHT22;2330;48.158;11.816;2023-04-03T05:44:04;2.40;98.50
4635;DHT22;2330;48.158;11.816;2023-04-03T05:46:31;2.50;98.50
4635;DHT22;2330;48.158;11.816;2023-04-03T05:48:58;2.40;98.50
4635;DHT22;2330;48.158;11.816;2023-04-03T05:51:32;2.40;98.50
4635;DHT22;2330;48.158;11.816;2023-04-03T05:54:06;2.40;98.50
4635;DHT22;2330;48.158;11.816;2023-04-03T05:56:35;2.40;98.50
4635;DHT22;2330;48.158;11.816;2023-04-03T05:59:02;2.40;98.50
4635;DHT22;2330;48.158;11.816;2023-04-03T06:01:29;2.40;98.50
4635;DHT22;2330;48.158;11.816;2023-04-03T06:03:55;2.40;98.50
4635;DHT22;2330;48.158;11.816;2023-04-03T06:06:25;2.40;98.50
4635;DHT22;2330;48.158;11.816;2023-04-03T06:08:52;2.50;98.50
4635;DHT22;2330;48.158;11.816;2023-04-03T06:11:18;2.50;98.50
4635;DHT22;2330;48.158;11.816;2023-04-03T06:13:45;2.50;98.50
4635;DHT22;2330;48.158;11.816;2023-04-03T06:16:12;2.50;98.50
4635;DHT22;2330;48.158;11.816;2023-04-03T06:18:41;2.50;98.50
4635;DHT22;2330;48.158;11.816;2023-04-03T06:21:08;2.60;98.50
4635;DHT22;2330;48.158;11.816;2023-04-03T06:23:35;2.70;98.50
4635;DHT22;2330;48.158;11.816;2023-04-03T06:26:02;2.70;98.50
4635;DHT22;2330;48.158;11.816;2023-04-03T06:28:29;2.70;98.50
4635;DHT22;2330;48.158;11.816;2023-04-03T06:30:56;2.70;98.50
4635;DHT22;2330;48.158;11.816;2023-04-03T06:33:23;2.80;98.50
4635;DHT22;2330;48.158;11.816;2023-04-03T06:35:49;2.80;98.50
4635;DHT22;2330;48.158;11.816;2023-04-03T06:38:22;2.90;98.50
4635;DHT22;2330;48.158;11.816;2023-04-03T06:40:48;3.00;98.50
4635;DHT22;2330;48.158;11.816;2023-04-03T06:43:15;3.00;98.50
4635;DHT22;2330;48.158;11.816;2023-04-03T06:45:42;3.00;98.50
4635;DHT22;2330;48.158;11.816;2023-04-03T06:48:09;3.00;98.50
4635;DHT22;2330;48.158;11.816;2023-04-03T06:50:36;3.00;98.50
4635;DHT22;2330;48.158;11.816;2023-04-03T06:53:02;3.00;98.50
4635;DHT22;2330;48.158;11.816;2023-04-03T06:55:30;3.10;98.50
4635;DHT22;2330;48.158;11.816;2023-04-03T06:57:57;3.00;98.50
4635;DHT22;2330;48.158;11.816;2023-04-03T07:00:23;3.00;98.50
4635;DHT22;2330;48.158;11.816;2023-04-03T07:02:51;3.00;98.50
4635;DHT22;2330;48.158;11.816;2023-04-03T07:05:18;3.10;98.50
4635;DHT22;2330;48.158;11.816;2023-04-03T07:07:45;3.10;98.50
4635;DHT22;2330;48.158;11.816;2023-04-03T07:10:12;3.20;98.50
4635;DHT22;2330;48.158;11.816;2023-04-03T07:12:38;3.20;98.50
4635;DHT22;2330;48.158;11.816;2023-04-03T07:15:06;3.20;98.50
4635;DHT22;2330;48.158;11.816;2023-04-03T07:17:33;3.20;98.50
4635;DHT22;2330;48.158;11.816;2023-04-03T07:20:00;3.20;98.50
4635;DHT22;2330;48.158;11.816;2023-04-03T07:22:26;3.30;98.50
4635;DHT22;2330;48.158;11.816;2023-04-03T07:24:53;3.30;98.50
4635;DHT22;2330;48.158;11.816;2023-04-03T07:27:20;3.30;98.50
4635;DHT22;2330;48.158;11.816;2023-04-03T07:29:47;3.20;98.50
4635;DHT22;2330;48.158;11.816;2023-04-03T07:32:15;3.20;98.50
4635;DHT22;2330;48.158;11.816;2023-04-03T07:34:41;3.30;98.50
4635;DHT22;2330;48.158;11.816;2023-04-03T07:37:08;3.30;98.50
4635;DHT22;2330;48.158;11.816;2023-04-03T07:39:35;3.30;98.50
4635;DHT22;2330;48.158;11.816;2023-04-03T07:42:02;3.40;98.50
4635;DHT22;2330;48.158;11.816;2023-04-03T07:44:29;3.30;98.50
4635;DHT22;2330;48.158;11.816;2023-04-03T07:46:56;3.30;98.50
4635;DHT22;2330;48.158;11.816;2023-04-03T07:49:23;3.30;98.50
4635;DHT22;2330;48.158;11.816;2023-04-03T07:51:50;3.40;98.50
4635;DHT22;2330;48.158;11.816;2023-04-03T07:54:17;3.50;98.50
4635;DHT22;2330;48.158;11.816;2023-04-03T07:56:44;3.50;98.50
4635;DHT22;2330;48.158;11.816;2023-04-03T07:59:11;3.60;98.50
4635;DHT22;2330;48.158;11.816;2023-04-03T08:01:38;3.60;98.50
4635;DHT22;2330;48.158;11.816;2023-04-03T08:04:04;3.60;98.50
4635;DHT22;2330;48.158;11.816;2023-04-03T08:06:33;3.70;98.50
4635;DHT22;2330;48.158;11.816;2023-04-03T08:09:12;3.70;98.50
4635;DHT22;2330;48.158;11.816;2023-04-03T08:11:41;3.80;98.50
4635;DHT22;2330;48.158;11.816;2023-04-03T08:14:08;3.70;98.50
4635;DHT22;2330;48.158;11.816;2023-04-03T08:16:34;3.70;98.50
4635;DHT22;2330;48.158;11.816;2023-04-03T08:19:01;3.70;98.50
4635;DHT22;2330;48.158;11.816;2023-04-03T08:21:30;3.80;98.50
4635;DHT22;2330;48.158;11.816;2023-04-03T08:23:57;3.80;98.50
4635;DHT22;2330;48.158;11.816;2023-04-03T08:26:24;3.80;98.50
4635;DHT22;2330;48.158;11.816;2023-04-03T08:28:52;3.80;98.50
4635;DHT22;2330;48.158;11.816;2023-04-03T08:31:19;3.90;98.50
4635;DHT22;2330;48.158;11.816;2023-04-03T08:33:47;3.80;98.50
4635;DHT22;2330;48.158;11.816;2023-04-03T08:36:26;3.80;98.50
4635;DHT22;2330;48.158;11.816;2023-04-03T08:38:55;4.00;98.50
4635;DHT22;2330;48.158;11.816;2023-04-03T08:41:41;4.10;98.50
4635;DHT22;2330;48.158;11.816;2023-04-03T08:49:28;4.40;98.50
4635;DHT22;2330;48.158;11.816;2023-04-03T08:51:57;4.40;98.50
4635;DHT22;2330;48.158;11.816;2023-04-03T08:54:37;4.30;98.50
4635;DHT22;2330;48.158;11.816;2023-04-03T08:57:09;4.60;98.50
4635;DHT22;2330;48.158;11.816;2023-04-03T08:59:37;4.60;98.50
4635;DHT22;2330;48.158;11.816;2023-04-03T09:02:29;4.80;98.50
4635;DHT22;2330;48.158;11.816;2023-04-03T09:04:57;4.90;98.50
4635;DHT22;2330;48.158;11.816;2023-04-03T09:07:36;4.80;98.50
4635;DHT22;2330;48.158;11.816;2023-04-03T09:10:05;4.90;98.50
4635;DHT22;2330;48.158;11.816;2023-04-03T09:12:38;5.00;98.50
4635;DHT22;2330;48.158;11.816;2023-04-03T09:18:20;4.90;98.50
4635;DHT22;2330;48.158;11.816;2023-04-03T09:21:04;5.10;98.50
4635;DHT22;2330;48.158;11.816;2023-04-03T09:23:44;5.20;98.50
4635;DHT22;2330;48.158;11.816;2023-04-03T09:26:42;5.00;98.50
4635;DHT22;2330;48.158;11.816;2023-04-03T09:29:17;4.80;98.50
4635;DHT22;2330;48.158;11.816;2023-04-03T09:31:47;4.70;98.50
4635;DHT22;2330;48.158;11.816;2023-04-03T09:34:22;4.60;98.50
4635;DHT22;2330;48.158;11.816;2023-04-03T09:36:51;4.50;98.50
4635;DHT22;2330;48.158;11.816;2023-04-03T09:39:24;4.40;98.50
4635;DHT22;2330;48.158;11.816;2023-04-03T09:44:37;4.40;98.50
4635;DHT22;2330;48.158;11.816;2023-04-03T09:49:54;4.50;98.50
4635;DHT22;2330;48.158;11.816;2023-04-03T09:52:35;4.80;98.50
4635;DHT22;2330;48.158;11.816;2023-04-03T09:55:17;4.80;98.50
4635;DHT22;2330;48.158;11.816;2023-04-03T09:57:48;4.80;98.50
4635;DHT22;2330;48.158;11.816;2023-04-03T10:00:28;4.60;98.50
4635;DHT22;2330;48.158;11.816;2023-04-03T10:02:57;4.70;98.50
4635;DHT22;2330;48.158;11.816;2023-04-03T10:08:33;4.70;98.50
4635;DHT22;2330;48.158;11.816;2023-04-03T10:11:16;4.40;98.50
4635;DHT22;2330;48.158;11.816;2023-04-03T10:13:59;4.30;98.50
4635;DHT22;2330;48.158;11.816;2023-04-03T10:16:38;4.20;98.50
4635;DHT22;2330;48.158;11.816;2023-04-03T10:22:04;4.00;98.50
4635;DHT22;2330;48.158;11.816;2023-04-03T10:25:24;3.90;98.50
4635;DHT22;2330;48.158;11.816;2023-04-03T10:30:20;3.80;98.50
4635;DHT22;2330;48.158;11.816;2023-04-03T10:36:06;3.80;98.50
4635;DHT22;2330;48.158;11.816;2023-04-03T10:39:23;3.60;98.50
4635;DHT22;2330;48.158;11.816;2023-04-03T10:58:57;3.80;98.50
4635;DHT22;2330;48.158;11.816;2023-04-03T11:01:31;3.90;98.50
4635;DHT22;2330;48.158;11.816;2023-04-03T11:04:00;4.00;98.50
4635;DHT22;2330;48.158;11.816;2023-04-03T11:06:45;4.00;98.50
4635;DHT22;2330;48.158;11.816;2023-04-03T11:09:23;4.00;98.50
4635;DHT22;2330;48.158;11.816;2023-04-03T11:11:55;4.00;98.50
4635;DHT22;2330;48.158;11.816;2023-04-03T11:14:35;4.00;98.50
4635;DHT22;2330;48.158;11.816;2023-04-03T11:19:59;4.40;98.50
4635;DHT22;2330;48.158;11.816;2023-04-03T11:22:32;4.50;98.50
4635;DHT22;2330;48.158;11.816;2023-04-03T11:28:09;4.90;98.50
4635;DHT22;2330;48.158;11.816;2023-04-03T11:30:58;4.70;98.50
4635;DHT22;2330;48.158;11.816;2023-04-03T11:39:10;5.10;98.50
4635;DHT22;2330;48.158;11.816;2023-04-03T11:41:42;5.20;98.50
4635;DHT22;2330;48.158;11.816;2023-04-03T11:44:36;5.30;98.30
4635;DHT22;2330;48.158;11.816;2023-04-03T11:47:05;5.40;98.50
4635;DHT22;2330;48.158;11.816;2023-04-03T11:50:30;5.40;98.30
4635;DHT22;2330;48.158;11.816;2023-04-03T11:53:02;5.50;98.50
4635;DHT22;2330;48.158;11.816;2023-04-03T11:55:46;5.60;98.30
4635;DHT22;2330;48.158;11.816;2023-04-03T11:58:41;5.60;97.80
4635;DHT22;2330;48.158;11.816;2023-04-03T12:01:11;5.60;97.30
4635;DHT22;2330;48.158;11.816;2023-04-03T12:04:08;5.60;97.30
4635;DHT22;2330;48.158;11.816;2023-04-03T12:09:23;5.50;97.00
4635;DHT22;2330;48.158;11.816;2023-04-03T12:11:51;5.50;97.40
4635;DHT22;2330;48.158;11.816;2023-04-03T12:14:22;5.50;97.00
4635;DHT22;2330;48.158;11.816;2023-04-03T12:16:52;5.70;97.50
4635;DHT22;2330;48.158;11.816;2023-04-03T12:24:32;6.00;95.10
4635;DHT22;2330;48.158;11.816;2023-04-03T12:38:23;6.20;94.10
4635;DHT22;2330;48.158;11.816;2023-04-03T12:46:17;6.10;93.50
4635;DHT22;2330;48.158;11.816;2023-04-03T12:51:18;6.70;94.60
4635;DHT22;2330;48.158;11.816;2023-04-03T12:53:47;7.20;92.60
4635;DHT22;2330;48.158;11.816;2023-04-03T12:56:29;7.90;92.70
4635;DHT22;2330;48.158;11.816;2023-04-03T12:59:21;8.70;89.90
4635;DHT22;2330;48.158;11.816;2023-04-03T13:01:59;9.50;88.60
4635;DHT22;2330;48.158;11.816;2023-04-03T13:04:31;10.00;84.60
4635;DHT22;2330;48.158;11.816;2023-04-03T13:06:58;10.20;84.20
4635;DHT22;2330;48.158;11.816;2023-04-03T13:09:28;10.10;82.10
4635;DHT22;2330;48.158;11.816;2023-04-03T13:12:00;10.40;82.30
4635;DHT22;2330;48.158;11.816;2023-04-03T13:14:27;10.40;81.40
4635;DHT22;2330;48.158;11.816;2023-04-03T13:17:03;9.70;80.90
4635;DHT22;2330;48.158;11.816;2023-04-03T13:19:31;9.80;81.30
4635;DHT22;2330;48.158;11.816;2023-04-03T13:22:02;10.10;81.20
4635;DHT22;2330;48.158;11.816;2023-04-03T13:24:34;10.00;83.20
4635;DHT22;2330;48.158;11.816;2023-04-03T13:27:02;9.30;83.20
4635;DHT22;2330;48.158;11.816;2023-04-03T13:29:32;8.40;83.20
4635;DHT22;2330;48.158;11.816;2023-04-03T13:32:00;8.00;82.40
4635;DHT22;2330;48.158;11.816;2023-04-03T13:34:35;7.50;86.70
4635;DHT22;2330;48.158;11.816;2023-04-03T13:37:03;6.80;88.00
4635;DHT22;2330;48.158;11.816;2023-04-03T13:39:33;6.60;87.00
4635;DHT22;2330;48.158;11.816;2023-04-03T13:42:15;6.40;89.60
4635;DHT22;2330;48.158;11.816;2023-04-03T13:44:43;6.20;87.80
4635;DHT22;2330;48.158;11.816;2023-04-03T13:47:21;6.00;88.60
4635;DHT22;2330;48.158;11.816;2023-04-03T13:50:25;5.90;89.70
4635;DHT22;2330;48.158;11.816;2023-04-03T13:53:09;5.80;89.60
4635;DHT22;2330;48.158;11.816;2023-04-03T13:55:59;5.80;90.50
4635;DHT22;2330;48.158;11.816;2023-04-03T13:58:28;6.00;89.70
4635;DHT22;2330;48.158;11.816;2023-04-03T14:01:19;6.10;88.80
4635;DHT22;2330;48.158;11.816;2023-04-03T14:03:54;6.00;87.50
4635;DHT22;2330;48.158;11.816;2023-04-03T14:06:22;6.00;87.30
4635;DHT22;2330;48.158;11.816;2023-04-03T14:08:50;6.20;90.20
4635;DHT22;2330;48.158;11.816;2023-04-03T14:11:29;6.10;87.90
4635;DHT22;2330;48.158;11.816;2023-04-03T14:14:15;6.20;88.70
4635;DHT22;2330;48.158;11.816;2023-04-03T14:16:47;6.20;87.40
4635;DHT22;2330;48.158;11.816;2023-04-03T14:19:19;6.30;85.70
4635;DHT22;2330;48.158;11.816;2023-04-03T14:21:46;6.20;89.30
4635;DHT22;2330;48.158;11.816;2023-04-03T14:24:13;6.10;88.00
4635;DHT22;2330;48.158;11.816;2023-04-03T14:26:39;6.00;87.30
4635;DHT22;2330;48.158;11.816;2023-04-03T14:29:10;5.90;86.10
4635;DHT22;2330;48.158;11.816;2023-04-03T14:31:37;5.80;86.30
4635;DHT22;2330;48.158;11.816;2023-04-03T14:34:04;6.10;88.30
4635;DHT22;2330;48.158;11.816;2023-04-03T14:36:32;6.40;85.60
4635;DHT22;2330;48.158;11.816;2023-04-03T14:39:00;6.50;84.90
4635;DHT22;2330;48.158;11.816;2023-04-03T14:41:27;6.90;86.50
4635;DHT22;2330;48.158;11.816;2023-04-03T14:43:54;6.90;81.70
4635;DHT22;2330;48.158;11.816;2023-04-03T14:46:27;7.00;81.50
4635;DHT22;2330;48.158;11.816;2023-04-03T14:49:19;7.20;80.40
4635;DHT22;2330;48.158;11.816;2023-04-03T14:51:47;7.10;79.00
4635;DHT22;2330;48.158;11.816;2023-04-03T14:54:17;6.70;82.00
4635;DHT22;2330;48.158;11.816;2023-04-03T14:56:44;6.50;84.40
4635;DHT22;2330;48.158;11.816;2023-04-03T14:59:13;6.30;84.00
4635;DHT22;2330;48.158;11.816;2023-04-03T15:01:41;6.10;85.00
4635;DHT22;2330;48.158;11.816;2023-04-03T15:04:16;5.90;84.20
4635;DHT22;2330;48.158;11.816;2023-04-03T15:06:43;6.10;85.20
4635;DHT22;2330;48.158;11.816;2023-04-03T15:09:22;6.50;84.10
4635;DHT22;2330;48.158;11.816;2023-04-03T15:11:50;6.70;82.10
4635;DHT22;2330;48.158;11.816;2023-04-03T15:14:17;6.90;81.50
4635;DHT22;2330;48.158;11.816;2023-04-03T15:17:05;6.80;79.20
4635;DHT22;2330;48.158;11.816;2023-04-03T15:19:36;7.10;82.20
4635;DHT22;2330;48.158;11.816;2023-04-03T15:22:04;7.10;82.90
4635;DHT22;2330;48.158;11.816;2023-04-03T15:24:31;6.90;79.90
4635;DHT22;2330;48.158;11.816;2023-04-03T15:26:59;6.90;80.50
4635;DHT22;2330;48.158;11.816;2023-04-03T15:29:27;6.70;81.50
4635;DHT22;2330;48.158;11.816;2023-04-03T15:31:53;6.50;80.70
4635;DHT22;2330;48.158;11.816;2023-04-03T15:34:20;6.40;81.10
4635;DHT22;2330;48.158;11.816;2023-04-03T15:36:49;6.30;80.80
4635;DHT22;2330;48.158;11.816;2023-04-03T15:39:19;6.30;80.70
4635;DHT22;2330;48.158;11.816;2023-04-03T15:41:47;6.20;81.20
4635;DHT22;2330;48.158;11.816;2023-04-03T15:44:14;5.90;82.00
4635;DHT22;2330;48.158;11.816;2023-04-03T15:46:45;5.80;82.80
4635;DHT22;2330;48.158;11.816;2023-04-03T15:49:12;5.60;84.30
4635;DHT22;2330;48.158;11.816;2023-04-03T15:51:39;5.50;84.10
4635;DHT22;2330;48.158;11.816;2023-04-03T15:54:06;5.40;82.40
4635;DHT22;2330;48.158;11.816;2023-04-03T15:56:33;5.20;85.00
4635;DHT22;2330;48.158;11.816;2023-04-03T15:58:59;5.10;83.30
4635;DHT22;2330;48.158;11.816;2023-04-03T16:01:26;5.20;81.70
4635;DHT22;2330;48.158;11.816;2023-04-03T16:03:53;5.30;80.80
4635;DHT22;2330;48.158;11.816;2023-04-03T16:06:20;5.30;81.60
4635;DHT22;2330;48.158;11.816;2023-04-03T16:08:48;5.40;84.70
4635;DHT22;2330;48.158;11.816;2023-04-03T16:11:15;5.50;83.60
4635;DHT22;2330;48.158;11.816;2023-04-03T16:13:43;5.40;79.40
4635;DHT22;2330;48.158;11.816;2023-04-03T16:16:09;5.40;80.10
4635;DHT22;2330;48.158;11.816;2023-04-03T16:18:36;5.50;80.70
4635;DHT22;2330;48.158;11.816;2023-04-03T16:21:03;5.50;82.90
4635;DHT22;2330;48.158;11.816;2023-04-03T16:23:32;5.50;83.90
4635;DHT22;2330;48.158;11.816;2023-04-03T16:25:58;5.60;83.30
4635;DHT22;2330;48.158;11.816;2023-04-03T16:28:25;5.60;84.20
4635;DHT22;2330;48.158;11.816;2023-04-03T16:30:52;5.60;85.10
4635;DHT22;2330;48.158;11.816;2023-04-03T16:33:19;5.50;83.30
4635;DHT22;2330;48.158;11.816;2023-04-03T16:35:49;5.40;82.90
4635;DHT22;2330;48.158;11.816;2023-04-03T16:38:16;5.20;83.40
4635;DHT22;2330;48.158;11.816;2023-04-03T16:40:45;5.10;84.40
4635;DHT22;2330;48.158;11.816;2023-04-03T16:43:12;5.00;85.20
4635;DHT22;2330;48.158;11.816;2023-04-03T16:45:39;5.00;87.40
4635;DHT22;2330;48.158;11.816;2023-04-03T16:48:06;5.00;87.70
4635;DHT22;2330;48.158;11.816;2023-04-03T16:50:33;4.90;87.70
4635;DHT22;2330;48.158;11.816;2023-04-03T16:53:00;4.80;88.20
4635;DHT22;2330;48.158;11.816;2023-04-03T16:55:29;4.80;87.80
4635;DHT22;2330;48.158;11.816;2023-04-03T16:57:56;4.70;88.30
4635;DHT22;2330;48.158;11.816;2023-04-03T17:00:23;4.60;88.70
4635;DHT22;2330;48.158;11.816;2023-04-03T17:02:50;4.60;87.80
4635;DHT22;2330;48.158;11.816;2023-04-03T17:05:16;4.60;89.00
4635;DHT22;2330;48.158;11.816;2023-04-03T17:07:43;4.50;89.00
4635;DHT22;2330;48.158;11.816;2023-04-03T17:10:11;4.40;88.00
4635;DHT22;2330;48.158;11.816;2023-04-03T17:12:38;4.30;87.10
4635;DHT22;2330;48.158;11.816;2023-04-03T17:15:06;4.20;86.60
4635;DHT22;2330;48.158;11.816;2023-04-03T17:17:33;4.20;86.40
4635;DHT22;2330;48.158;11.816;2023-04-03T17:20:00;4.10;86.60
4635;DHT22;2330;48.158;11.816;2023-04-03T17:22:28;4.10;87.60
4635;DHT22;2330;48.158;11.816;2023-04-03T17:24:55;4.10;87.10
4635;DHT22;2330;48.158;11.816;2023-04-03T17:27:23;4.10;87.30
4635;DHT22;2330;48.158;11.816;2023-04-03T17:29:50;4.00;86.60
4635;DHT22;2330;48.158;11.816;2023-04-03T17:32:17;4.00;87.50
4635;DHT22;2330;48.158;11.816;2023-04-03T17:34:47;4.00;88.10
4635;DHT22;2330;48.158;11.816;2023-04-03T17:37:14;4.00;87.80
4635;DHT22;2330;48.158;11.816;2023-04-03T17:39:41;4.00;88.00
4635;DHT22;2330;48.158;11.816;2023-04-03T17:42:08;4.00;89.30
4635;DHT22;2330;48.158;11.816;2023-04-03T17:44:35;3.90;89.30
4635;DHT22;2330;48.158;11.816;2023-04-03T17:47:02;3.90;90.20